Accueil
METAR-TAF:

METAR-TAF

Aéroports :

Nakhon Ratchasima, Thaïlande

latitude: 14-56-58N, longitude: 102-18-45E, altitude: 233 m

Observation

Le bulletin a été fait il y a 1 heure et 5 minutes, à 01:00 UTC
Vent 4 kt de ouest/sud-ouest, variant entre sud/sud-ouest et ouest
Température 29°C
Humidité 79%
Pression 1005 hPa
Visibilité 10 km ou plus
Quelques nuages à une hauteur de 3000 ft

METAR: VTUQ 220100Z 24004KT 210V280 9999 FEW030 29/25 Q1005 NOSIG

Heure: 09:05 (02:05 UTC)

Prévision

Le bulletin a été fait il y a 3 heures et 5 minutes, à 23:00 UTC
Prévision valable du 22 à 00 UTC au 22 à 24 UTC
Vent 5 kt de ouest/sud-ouest
Visibilité: 9000 m
Nuages épars à une hauteur de 3000 ft
Temporairement
du 22 à 05 UTC au 22 à 12 UTC
Quelques nuages à une hauteur de 1800 ft, Cumulonimbus.
Nuages fragmentés à une hauteur de 3000 ft
orage, pluie faible,

TAF: VTUQ 212300Z 2200/2224 25005KT 9000 SCT030 TEMPO 2205/2212 -TSRA FEW018CB BKN030

Observations et prévisions météorologiques de plus de 4000 aéroports (messages METAR et TAF).

Les stations disponibles sont représentées par des disques jaunes et rouges sur la carte.

Passer la souris dessus pour voir le nom de la station.

Cliquer dessus pour voir les observations et prévisions météorologiques.

Pour changer de carte: cliquez sur les boutons verts avec une croix noire pour zoomer, sur le bouton vert avec un tiret pour effectuer un zoom arrière, ou sur les flèches vertes pour les cartes adjacentes.


METAR-TAF: